sensor_id;sensor_type;location;lat;lon;timestamp;P1;durP1;ratioP1;P2;durP2;ratioP2
72369;SDS011;60343;-32.030;115.880;2022-10-04T00:01:22;3.15;;;0.40;;
72369;SDS011;60343;-32.030;115.880;2022-10-04T00:03:53;4.40;;;0.50;;
72369;SDS011;60343;-32.030;115.880;2022-10-04T00:09:14;3.65;;;0.40;;
72369;SDS011;60343;-32.030;115.880;2022-10-04T00:11:45;4.72;;;0.40;;
72369;SDS011;60343;-32.030;115.880;2022-10-04T00:14:16;0.73;;;0.20;;
72369;SDS011;60343;-32.030;115.880;2022-10-04T00:16:47;1.52;;;0.20;;
72369;SDS011;60343;-32.030;115.880;2022-10-04T00:19:35;2.50;;;0.40;;
72369;SDS011;60343;-32.030;115.880;2022-10-04T00:22:18;1.95;;;0.20;;
72369;SDS011;60343;-32.030;115.880;2022-10-04T00:30:41;5.00;;;0.40;;
72369;SDS011;60343;-32.030;115.880;2022-10-04T00:33:10;4.15;;;0.63;;
72369;SDS011;60343;-32.030;115.880;2022-10-04T00:35:57;1.23;;;0.20;;
72369;SDS011;60343;-32.030;115.880;2022-10-04T00:38:31;2.28;;;0.40;;
72369;SDS011;60343;-32.030;115.880;2022-10-04T00:41:02;4.00;;;0.50;;
72369;SDS011;60343;-32.030;115.880;2022-10-04T00:43:35;1.85;;;0.30;;
72369;SDS011;60343;-32.030;115.880;2022-10-04T00:46:13;3.45;;;0.32;;
72369;SDS011;60343;-32.030;115.880;2022-10-04T00:48:46;2.88;;;0.20;;
72369;SDS011;60343;-32.030;115.880;2022-10-04T00:51:21;2.17;;;0.30;;
72369;SDS011;60343;-32.030;115.880;2022-10-04T00:54:03;1.83;;;0.38;;
72369;SDS011;60343;-32.030;115.880;2022-10-04T00:56:39;3.10;;;0.47;;
72369;SDS011;60343;-32.030;115.880;2022-10-04T00:59:16;1.52;;;0.25;;
72369;SDS011;60343;-32.030;115.880;2022-10-04T01:02:04;2.08;;;0.30;;
72369;SDS011;60343;-32.030;115.880;2022-10-04T01:04:40;1.58;;;0.20;;
72369;SDS011;60343;-32.030;115.880;2022-10-04T01:07:11;1.15;;;0.35;;
72369;SDS011;60343;-32.030;115.880;2022-10-04T01:09:51;0.85;;;0.20;;
72369;SDS011;60343;-32.030;115.880;2022-10-04T01:15:12;5.00;;;0.30;;
72369;SDS011;60343;-32.030;115.880;2022-10-04T01:20:38;3.33;;;0.30;;
72369;SDS011;60343;-32.030;115.880;2022-10-04T01:23:24;2.63;;;0.35;;
72369;SDS011;60343;-32.030;115.880;2022-10-04T01:26:02;2.72;;;0.40;;
72369;SDS011;60343;-32.030;115.880;2022-10-04T01:28:31;1.45;;;0.20;;
72369;SDS011;60343;-32.030;115.880;2022-10-04T01:31:01;2.72;;;0.30;;
72369;SDS011;60343;-32.030;115.880;2022-10-04T01:33:29;2.47;;;0.30;;
72369;SDS011;60343;-32.030;115.880;2022-10-04T01:36:00;2.75;;;0.40;;
72369;SDS011;60343;-32.030;115.880;2022-10-04T01:38:34;2.70;;;0.30;;
72369;SDS011;60343;-32.030;115.880;2022-10-04T01:41:02;4.53;;;0.40;;
72369;SDS011;60343;-32.030;115.880;2022-10-04T01:43:37;3.75;;;0.30;;
72369;SDS011;60343;-32.030;115.880;2022-10-04T01:46:11;1.35;;;0.20;;
72369;SDS011;60343;-32.030;115.880;2022-10-04T01:48:45;1.55;;;0.38;;
72369;SDS011;60343;-32.030;115.880;2022-10-04T01:51:15;3.05;;;0.50;;
72369;SDS011;60343;-32.030;115.880;2022-10-04T01:53:53;3.22;;;0.45;;
72369;SDS011;60343;-32.030;115.880;2022-10-04T01:56:30;2.35;;;0.30;;
72369;SDS011;60343;-32.030;115.880;2022-10-04T01:59:03;1.63;;;0.25;;
72369;SDS011;60343;-32.030;115.880;2022-10-04T02:01:39;6.45;;;0.40;;
72369;SDS011;60343;-32.030;115.880;2022-10-04T02:04:13;1.58;;;0.30;;
72369;SDS011;60343;-32.030;115.880;2022-10-04T02:06:44;2.85;;;0.30;;
72369;SDS011;60343;-32.030;115.880;2022-10-04T02:09:21;1.65;;;0.20;;
72369;SDS011;60343;-32.030;115.880;2022-10-04T02:11:52;1.30;;;0.20;;
72369;SDS011;60343;-32.030;115.880;2022-10-04T02:14:22;0.88;;;0.13;;
72369;SDS011;60343;-32.030;115.880;2022-10-04T02:16:54;1.30;;;0.30;;
72369;SDS011;60343;-32.030;115.880;2022-10-04T02:19:23;3.38;;;0.45;;
72369;SDS011;60343;-32.030;115.880;2022-10-04T02:21:53;3.13;;;0.30;;
72369;SDS011;60343;-32.030;115.880;2022-10-04T02:24:28;1.25;;;0.30;;
72369;SDS011;60343;-32.030;115.880;2022-10-04T02:26:58;0.95;;;0.15;;
72369;SDS011;60343;-32.030;115.880;2022-10-04T02:29:29;2.05;;;0.30;;
72369;SDS011;60343;-32.030;115.880;2022-10-04T02:31:57;0.75;;;0.13;;
72369;SDS011;60343;-32.030;115.880;2022-10-04T02:34:28;3.42;;;0.20;;
72369;SDS011;60343;-32.030;115.880;2022-10-04T02:37:00;1.90;;;0.20;;
72369;SDS011;60343;-32.030;115.880;2022-10-04T02:39:35;1.55;;;0.20;;
72369;SDS011;60343;-32.030;115.880;2022-10-04T02:42:09;1.73;;;0.30;;
72369;SDS011;60343;-32.030;115.880;2022-10-04T02:44:44;2.17;;;0.30;;
72369;SDS011;60343;-32.030;115.880;2022-10-04T02:47:21;2.63;;;0.30;;
72369;SDS011;60343;-32.030;115.880;2022-10-04T02:49:55;1.63;;;0.40;;
72369;SDS011;60343;-32.030;115.880;2022-10-04T02:52:26;2.15;;;0.32;;
72369;SDS011;60343;-32.030;115.880;2022-10-04T02:55:05;1.90;;;0.35;;
72369;SDS011;60343;-32.030;115.880;2022-10-04T02:57:41;1.98;;;0.20;;
72369;SDS011;60343;-32.030;115.880;2022-10-04T03:00:16;0.70;;;0.30;;
72369;SDS011;60343;-32.030;115.880;2022-10-04T03:05:40;4.03;;;0.45;;
72369;SDS011;60343;-32.030;115.880;2022-10-04T03:10:50;2.47;;;0.30;;
72369;SDS011;60343;-32.030;115.880;2022-10-04T03:13:18;0.70;;;0.10;;
72369;SDS011;60343;-32.030;115.880;2022-10-04T03:15:47;2.25;;;0.30;;
72369;SDS011;60343;-32.030;115.880;2022-10-04T03:18:16;1.90;;;0.20;;
72369;SDS011;60343;-32.030;115.880;2022-10-04T03:20:45;1.38;;;0.25;;
72369;SDS011;60343;-32.030;115.880;2022-10-04T03:23:19;0.85;;;0.20;;
72369;SDS011;60343;-32.030;115.880;2022-10-04T03:25:55;1.02;;;0.20;;
72369;SDS011;60343;-32.030;115.880;2022-10-04T03:28:28;1.50;;;0.17;;
72369;SDS011;60343;-32.030;115.880;2022-10-04T03:30:56;1.27;;;0.30;;
72369;SDS011;60343;-32.030;115.880;2022-10-04T03:33:25;1.65;;;0.20;;
72369;SDS011;60343;-32.030;115.880;2022-10-04T03:35:58;1.27;;;0.20;;
72369;SDS011;60343;-32.030;115.880;2022-10-04T03:38:27;0.20;;;0.10;;
72369;SDS011;60343;-32.030;115.880;2022-10-04T03:41:03;1.95;;;0.40;;
72369;SDS011;60343;-32.030;115.880;2022-10-04T03:43:32;1.65;;;0.20;;
72369;SDS011;60343;-32.030;115.880;2022-10-04T03:46:07;1.67;;;0.20;;
72369;SDS011;60343;-32.030;115.880;2022-10-04T03:48:37;2.63;;;0.22;;
72369;SDS011;60343;-32.030;115.880;2022-10-04T03:51:10;2.28;;;0.25;;
72369;SDS011;60343;-32.030;115.880;2022-10-04T03:53:42;1.75;;;0.30;;
72369;SDS011;60343;-32.030;115.880;2022-10-04T03:56:19;2.55;;;0.28;;
72369;SDS011;60343;-32.030;115.880;2022-10-04T03:58:52;0.40;;;0.20;;
72369;SDS011;60343;-32.030;115.880;2022-10-04T04:01:29;2.17;;;0.20;;
72369;SDS011;60343;-32.030;115.880;2022-10-04T04:04:10;2.38;;;0.30;;
72369;SDS011;60343;-32.030;115.880;2022-10-04T04:06:45;0.70;;;0.20;;
72369;SDS011;60343;-32.030;115.880;2022-10-04T04:09:19;3.95;;;0.22;;
72369;SDS011;60343;-32.030;115.880;2022-10-04T04:12:01;0.90;;;0.20;;
72369;SDS011;60343;-32.030;115.880;2022-10-04T04:14:35;0.93;;;0.22;;
72369;SDS011;60343;-32.030;115.880;2022-10-04T04:17:27;1.63;;;0.30;;
72369;SDS011;60343;-32.030;115.880;2022-10-04T04:20:02;0.65;;;0.10;;
72369;SDS011;60343;-32.030;115.880;2022-10-04T04:22:38;1.42;;;0.30;;
72369;SDS011;60343;-32.030;115.880;2022-10-04T04:25:14;1.73;;;0.25;;
72369;SDS011;60343;-32.030;115.880;2022-10-04T04:27:49;2.40;;;0.50;;
72369;SDS011;60343;-32.030;115.880;2022-10-04T04:30:21;0.68;;;0.10;;
72369;SDS011;60343;-32.030;115.880;2022-10-04T04:32:52;1.40;;;0.28;;
72369;SDS011;60343;-32.030;115.880;2022-10-04T04:35:23;1.20;;;0.15;;
72369;SDS011;60343;-32.030;115.880;2022-10-04T04:38:05;1.02;;;0.20;;
72369;SDS011;60343;-32.030;115.880;2022-10-04T04:40:43;1.40;;;0.20;;
72369;SDS011;60343;-32.030;115.880;2022-10-04T04:43:18;1.00;;;0.30;;
72369;SDS011;60343;-32.030;115.880;2022-10-04T04:45:47;1.52;;;0.20;;
72369;SDS011;60343;-32.030;115.880;2022-10-04T04:48:16;0.88;;;0.20;;
72369;SDS011;60343;-32.030;115.880;2022-10-04T04:50:48;0.93;;;0.30;;
72369;SDS011;60343;-32.030;115.880;2022-10-04T04:53:20;2.53;;;0.30;;
72369;SDS011;60343;-32.030;115.880;2022-10-04T04:55:50;1.80;;;0.30;;
72369;SDS011;60343;-32.030;115.880;2022-10-04T04:58:27;0.73;;;0.20;;
72369;SDS011;60343;-32.030;115.880;2022-10-04T05:00:57;2.08;;;0.30;;
72369;SDS011;60343;-32.030;115.880;2022-10-04T05:03:28;1.38;;;0.30;;
72369;SDS011;60343;-32.030;115.880;2022-10-04T05:05:56;0.90;;;0.20;;
72369;SDS011;60343;-32.030;115.880;2022-10-04T05:08:24;2.45;;;0.25;;
72369;SDS011;60343;-32.030;115.880;2022-10-04T05:10:59;0.77;;;0.20;;
72369;SDS011;60343;-32.030;115.880;2022-10-04T05:13:37;2.03;;;0.30;;
72369;SDS011;60343;-32.030;115.880;2022-10-04T05:16:13;0.75;;;0.20;;
72369;SDS011;60343;-32.030;115.880;2022-10-04T05:18:48;3.08;;;0.55;;
72369;SDS011;60343;-32.030;115.880;2022-10-04T05:23:52;1.73;;;0.20;;
72369;SDS011;60343;-32.030;115.880;2022-10-04T05:26:23;3.55;;;0.50;;
72369;SDS011;60343;-32.030;115.880;2022-10-04T05:29:13;2.38;;;0.40;;
72369;SDS011;60343;-32.030;115.880;2022-10-04T05:31:45;1.73;;;0.30;;
72369;SDS011;60343;-32.030;115.880;2022-10-04T05:34:21;2.60;;;0.32;;
72369;SDS011;60343;-32.030;115.880;2022-10-04T05:39:25;1.73;;;0.30;;
72369;SDS011;60343;-32.030;115.880;2022-10-04T05:42:00;1.27;;;0.30;;
72369;SDS011;60343;-32.030;115.880;2022-10-04T05:44:43;4.13;;;0.47;;
72369;SDS011;60343;-32.030;115.880;2022-10-04T05:49:47;2.63;;;0.30;;
72369;SDS011;60343;-32.030;115.880;2022-10-04T05:52:24;1.67;;;0.38;;
72369;SDS011;60343;-32.030;115.880;2022-10-04T05:55:09;1.48;;;0.40;;
72369;SDS011;60343;-32.030;115.880;2022-10-04T05:58:01;3.13;;;0.30;;
72369;SDS011;60343;-32.030;115.880;2022-10-04T06:00:57;2.03;;;0.38;;
72369;SDS011;60343;-32.030;115.880;2022-10-04T06:03:41;2.95;;;0.40;;
72369;SDS011;60343;-32.030;115.880;2022-10-04T06:06:26;1.42;;;0.30;;
72369;SDS011;60343;-32.030;115.880;2022-10-04T06:09:05;2.15;;;0.40;;
72369;SDS011;60343;-32.030;115.880;2022-10-04T06:11:56;4.40;;;0.82;;
72369;SDS011;60343;-32.030;115.880;2022-10-04T06:23:42;3.08;;;0.50;;
72369;SDS011;60343;-32.030;115.880;2022-10-04T06:26:20;1.65;;;0.30;;
72369;SDS011;60343;-32.030;115.880;2022-10-04T06:28:53;4.20;;;0.55;;
72369;SDS011;60343;-32.030;115.880;2022-10-04T06:31:41;2.92;;;0.30;;
72369;SDS011;60343;-32.030;115.880;2022-10-04T06:34:40;5.38;;;0.40;;
72369;SDS011;60343;-32.030;115.880;2022-10-04T06:43:44;2.70;;;0.50;;
72369;SDS011;60343;-32.030;115.880;2022-10-04T06:46:24;1.52;;;0.40;;
72369;SDS011;60343;-32.030;115.880;2022-10-04T06:49:05;2.17;;;0.40;;
72369;SDS011;60343;-32.030;115.880;2022-10-04T07:01:08;0.80;;;0.30;;
72369;SDS011;60343;-32.030;115.880;2022-10-04T07:03:49;1.20;;;0.22;;
72369;SDS011;60343;-32.030;115.880;2022-10-04T07:06:22;2.30;;;0.30;;
72369;SDS011;60343;-32.030;115.880;2022-10-04T07:08:53;1.92;;;0.40;;
72369;SDS011;60343;-32.030;115.880;2022-10-04T07:11:24;2.78;;;0.40;;
72369;SDS011;60343;-32.030;115.880;2022-10-04T07:13:58;2.05;;;0.40;;
72369;SDS011;60343;-32.030;115.880;2022-10-04T07:16:42;0.77;;;0.30;;
72369;SDS011;60343;-32.030;115.880;2022-10-04T07:19:24;1.65;;;0.28;;
72369;SDS011;60343;-32.030;115.880;2022-10-04T07:21:59;2.40;;;0.40;;
72369;SDS011;60343;-32.030;115.880;2022-10-04T07:24:44;1.10;;;0.20;;
72369;SDS011;60343;-32.030;115.880;2022-10-04T07:27:23;1.55;;;0.30;;
72369;SDS011;60343;-32.030;115.880;2022-10-04T07:29:58;2.45;;;0.35;;
72369;SDS011;60343;-32.030;115.880;2022-10-04T07:32:34;3.00;;;0.40;;
72369;SDS011;60343;-32.030;115.880;2022-10-04T07:35:12;3.65;;;0.43;;
72369;SDS011;60343;-32.030;115.880;2022-10-04T07:37:47;2.25;;;0.40;;
72369;SDS011;60343;-32.030;115.880;2022-10-04T07:40:23;1.75;;;0.45;;
72369;SDS011;60343;-32.030;115.880;2022-10-04T07:42:58;2.53;;;0.30;;
72369;SDS011;60343;-32.030;115.880;2022-10-04T07:45:31;1.40;;;0.32;;
72369;SDS011;60343;-32.030;115.880;2022-10-04T07:48:11;3.50;;;0.30;;
72369;SDS011;60343;-32.030;115.880;2022-10-04T07:50:42;1.77;;;0.40;;
72369;SDS011;60343;-32.030;115.880;2022-10-04T07:53:16;1.88;;;0.30;;
72369;SDS011;60343;-32.030;115.880;2022-10-04T07:55:50;1.83;;;0.32;;
72369;SDS011;60343;-32.030;115.880;2022-10-04T07:58:32;2.65;;;0.70;;
72369;SDS011;60343;-32.030;115.880;2022-10-04T08:01:22;1.33;;;0.40;;
72369;SDS011;60343;-32.030;115.880;2022-10-04T08:04:09;1.35;;;0.32;;
72369;SDS011;60343;-32.030;115.880;2022-10-04T08:06:53;1.95;;;0.30;;
72369;SDS011;60343;-32.030;115.880;2022-10-04T08:09:35;0.57;;;0.30;;
72369;SDS011;60343;-32.030;115.880;2022-10-04T08:12:12;2.00;;;0.40;;
72369;SDS011;60343;-32.030;115.880;2022-10-04T08:17:38;2.60;;;0.40;;
72369;SDS011;60343;-32.030;115.880;2022-10-04T08:23:15;1.77;;;0.52;;
72369;SDS011;60343;-32.030;115.880;2022-10-04T08:25:57;2.25;;;0.30;;
72369;SDS011;60343;-32.030;115.880;2022-10-04T08:28:43;2.08;;;0.40;;
72369;SDS011;60343;-32.030;115.880;2022-10-04T08:31:26;1.58;;;0.40;;
72369;SDS011;60343;-32.030;115.880;2022-10-04T08:34:14;0.68;;;0.28;;
72369;SDS011;60343;-32.030;115.880;2022-10-04T08:37:06;2.08;;;0.32;;
72369;SDS011;60343;-32.030;115.880;2022-10-04T08:39:44;0.60;;;0.20;;
72369;SDS011;60343;-32.030;115.880;2022-10-04T08:45:25;1.08;;;0.30;;
72369;SDS011;60343;-32.030;115.880;2022-10-04T08:51:12;3.22;;;0.40;;
72369;SDS011;60343;-32.030;115.880;2022-10-04T08:57:11;2.72;;;0.40;;
72369;SDS011;60343;-32.030;115.880;2022-10-04T09:00:02;1.85;;;0.35;;
72369;SDS011;60343;-32.030;115.880;2022-10-04T09:02:51;1.65;;;0.30;;
72369;SDS011;60343;-32.030;115.880;2022-10-04T09:05:45;0.88;;;0.30;;
72369;SDS011;60343;-32.030;115.880;2022-10-04T09:11:33;2.25;;;0.60;;
72369;SDS011;60343;-32.030;115.880;2022-10-04T09:14:26;1.35;;;0.30;;
72369;SDS011;60343;-32.030;115.880;2022-10-04T09:17:15;2.83;;;0.32;;
72369;SDS011;60343;-32.030;115.880;2022-10-04T09:19:50;4.10;;;0.40;;
72369;SDS011;60343;-32.030;115.880;2022-10-04T09:22:43;0.95;;;0.17;;
72369;SDS011;60343;-32.030;115.880;2022-10-04T09:25:24;1.13;;;0.20;;
72369;SDS011;60343;-32.030;115.880;2022-10-04T09:28:13;3.83;;;0.45;;
72369;SDS011;60343;-32.030;115.880;2022-10-04T09:31:00;2.30;;;0.22;;
72369;SDS011;60343;-32.030;115.880;2022-10-04T09:33:48;3.08;;;0.40;;
72369;SDS011;60343;-32.030;115.880;2022-10-04T09:36:43;1.85;;;0.20;;
72369;SDS011;60343;-32.030;115.880;2022-10-04T09:39:32;1.73;;;0.38;;
72369;SDS011;60343;-32.030;115.880;2022-10-04T09:48:34;2.30;;;0.50;;
72369;SDS011;60343;-32.030;115.880;2022-10-04T09:57:04;2.35;;;0.30;;
72369;SDS011;60343;-32.030;115.880;2022-10-04T09:59:48;1.75;;;0.30;;
72369;SDS011;60343;-32.030;115.880;2022-10-04T10:02:41;3.97;;;0.30;;
72369;SDS011;60343;-32.030;115.880;2022-10-04T10:08:23;0.68;;;0.17;;
72369;SDS011;60343;-32.030;115.880;2022-10-04T10:11:03;2.25;;;0.35;;
72369;SDS011;60343;-32.030;115.880;2022-10-04T10:13:54;2.03;;;0.30;;
72369;SDS011;60343;-32.030;115.880;2022-10-04T10:16:37;3.22;;;0.32;;
72369;SDS011;60343;-32.030;115.880;2022-10-04T10:19:23;1.17;;;0.30;;
72369;SDS011;60343;-32.030;115.880;2022-10-04T10:22:15;2.15;;;0.38;;
72369;SDS011;60343;-32.030;115.880;2022-10-04T10:25:01;2.67;;;0.40;;
72369;SDS011;60343;-32.030;115.880;2022-10-04T10:27:50;1.85;;;0.35;;
72369;SDS011;60343;-32.030;115.880;2022-10-04T10:30:45;2.58;;;0.28;;
72369;SDS011;60343;-32.030;115.880;2022-10-04T10:42:58;3.60;;;0.30;;
72369;SDS011;60343;-32.030;115.880;2022-10-04T10:45:45;3.20;;;0.25;;
72369;SDS011;60343;-32.030;115.880;2022-10-04T10:48:27;1.95;;;0.38;;
72369;SDS011;60343;-32.030;115.880;2022-10-04T10:51:16;2.42;;;0.45;;
72369;SDS011;60343;-32.030;115.880;2022-10-04T10:57:10;1.83;;;0.20;;
72369;SDS011;60343;-32.030;115.880;2022-10-04T11:00:01;3.08;;;0.30;;
72369;SDS011;60343;-32.030;115.880;2022-10-04T11:11:55;1.67;;;0.10;;
72369;SDS011;60343;-32.030;115.880;2022-10-04T11:21:12;5.03;;;0.40;;
72369;SDS011;60343;-32.030;115.880;2022-10-04T11:24:04;4.13;;;0.40;;
72369;SDS011;60343;-32.030;115.880;2022-10-04T11:30:02;3.80;;;0.40;;
72369;SDS011;60343;-32.030;115.880;2022-10-04T11:38:48;2.25;;;0.50;;
72369;SDS011;60343;-32.030;115.880;2022-10-04T11:41:24;3.97;;;0.43;;
72369;SDS011;60343;-32.030;115.880;2022-10-04T11:44:10;3.33;;;0.52;;
72369;SDS011;60343;-32.030;115.880;2022-10-04T11:47:01;3.75;;;0.32;;
72369;SDS011;60343;-32.030;115.880;2022-10-04T11:49:43;2.85;;;0.30;;
72369;SDS011;60343;-32.030;115.880;2022-10-04T11:52:36;2.95;;;0.40;;
72369;SDS011;60343;-32.030;115.880;2022-10-04T11:55:35;4.43;;;0.50;;
72369;SDS011;60343;-32.030;115.880;2022-10-04T11:58:32;3.72;;;0.50;;
72369;SDS011;60343;-32.030;115.880;2022-10-04T12:01:26;4.68;;;0.32;;
72369;SDS011;60343;-32.030;115.880;2022-10-04T12:04:15;4.90;;;0.45;;
72369;SDS011;60343;-32.030;115.880;2022-10-04T12:07:00;5.45;;;0.43;;
72369;SDS011;60343;-32.030;115.880;2022-10-04T12:09:53;6.85;;;0.43;;
72369;SDS011;60343;-32.030;115.880;2022-10-04T12:12:32;4.72;;;0.40;;
72369;SDS011;60343;-32.030;115.880;2022-10-04T12:18:18;5.25;;;0.40;;
72369;SDS011;60343;-32.030;115.880;2022-10-04T12:21:07;3.92;;;0.43;;
72369;SDS011;60343;-32.030;115.880;2022-10-04T12:27:04;5.88;;;0.40;;
72369;SDS011;60343;-32.030;115.880;2022-10-04T12:32:48;3.95;;;0.30;;
72369;SDS011;60343;-32.030;115.880;2022-10-04T12:35:25;5.22;;;0.30;;
72369;SDS011;60343;-32.030;115.880;2022-10-04T12:40:58;4.75;;;0.60;;
72369;SDS011;60343;-32.030;115.880;2022-10-04T12:43:47;2.22;;;0.30;;
72369;SDS011;60343;-32.030;115.880;2022-10-04T12:46:27;2.00;;;0.60;;
72369;SDS011;60343;-32.030;115.880;2022-10-04T12:49:07;3.03;;;0.50;;
72369;SDS011;60343;-32.030;115.880;2022-10-04T12:51:53;3.63;;;0.40;;
72369;SDS011;60343;-32.030;115.880;2022-10-04T12:54:35;5.88;;;0.60;;
72369;SDS011;60343;-32.030;115.880;2022-10-04T12:57:11;5.40;;;0.50;;
72369;SDS011;60343;-32.030;115.880;2022-10-04T12:59:59;3.85;;;0.65;;
72369;SDS011;60343;-32.030;115.880;2022-10-04T13:02:44;2.70;;;0.30;;
72369;SDS011;60343;-32.030;115.880;2022-10-04T13:05:39;5.22;;;0.60;;
72369;SDS011;60343;-32.030;115.880;2022-10-04T13:08:18;2.40;;;0.47;;
72369;SDS011;60343;-32.030;115.880;2022-10-04T13:11:03;5.32;;;0.60;;
72369;SDS011;60343;-32.030;115.880;2022-10-04T13:16:48;4.18;;;0.70;;
72369;SDS011;60343;-32.030;115.880;2022-10-04T13:19:23;1.42;;;0.22;;
72369;SDS011;60343;-32.030;115.880;2022-10-04T13:22:14;4.35;;;0.40;;
72369;SDS011;60343;-32.030;115.880;2022-10-04T13:24:55;5.68;;;0.50;;
72369;SDS011;60343;-32.030;115.880;2022-10-04T13:27:38;2.92;;;0.35;;
72369;SDS011;60343;-32.030;115.880;2022-10-04T13:30:17;2.45;;;0.50;;
72369;SDS011;60343;-32.030;115.880;2022-10-04T13:32:54;3.58;;;0.68;;
72369;SDS011;60343;-32.030;115.880;2022-10-04T13:35:33;4.28;;;0.40;;
72369;SDS011;60343;-32.030;115.880;2022-10-04T13:38:10;3.58;;;0.38;;
72369;SDS011;60343;-32.030;115.880;2022-10-04T13:40:59;9.27;;;0.80;;
72369;SDS011;60343;-32.030;115.880;2022-10-04T13:46:35;3.47;;;0.50;;
72369;SDS011;60343;-32.030;115.880;2022-10-04T13:49:22;5.57;;;0.45;;
72369;SDS011;60343;-32.030;115.880;2022-10-04T13:52:05;5.15;;;0.55;;
72369;SDS011;60343;-32.030;115.880;2022-10-04T13:54:45;2.45;;;0.73;;
72369;SDS011;60343;-32.030;115.880;2022-10-04T13:57:21;6.72;;;0.63;;
72369;SDS011;60343;-32.030;115.880;2022-10-04T13:59:59;8.48;;;0.60;;
72369;SDS011;60343;-32.030;115.880;2022-10-04T14:08:49;6.88;;;0.65;;
72369;SDS011;60343;-32.030;115.880;2022-10-04T14:14:42;3.80;;;0.52;;
72369;SDS011;60343;-32.030;115.880;2022-10-04T14:17:36;1.67;;;0.30;;
72369;SDS011;60343;-32.030;115.880;2022-10-04T14:23:32;2.85;;;0.30;;
72369;SDS011;60343;-32.030;115.880;2022-10-04T14:29:26;3.53;;;0.43;;
72369;SDS011;60343;-32.030;115.880;2022-10-04T14:32:17;2.10;;;0.32;;
72369;SDS011;60343;-32.030;115.880;2022-10-04T14:35:04;3.63;;;0.30;;
72369;SDS011;60343;-32.030;115.880;2022-10-04T14:46:55;3.25;;;0.57;;
72369;SDS011;60343;-32.030;115.880;2022-10-04T14:49:39;4.50;;;0.70;;
72369;SDS011;60343;-32.030;115.880;2022-10-04T14:52:30;2.38;;;0.57;;
72369;SDS011;60343;-32.030;115.880;2022-10-04T14:55:09;2.60;;;0.50;;
72369;SDS011;60343;-32.030;115.880;2022-10-04T14:57:56;6.28;;;0.55;;
72369;SDS011;60343;-32.030;115.880;2022-10-04T15:00:47;3.38;;;0.60;;
72369;SDS011;60343;-32.030;115.880;2022-10-04T15:03:29;5.95;;;0.70;;
72369;SDS011;60343;-32.030;115.880;2022-10-04T15:09:00;4.20;;;0.52;;
72369;SDS011;60343;-32.030;115.880;2022-10-04T15:11:47;4.63;;;0.50;;
72369;SDS011;60343;-32.030;115.880;2022-10-04T15:14:24;2.78;;;0.40;;
72369;SDS011;60343;-32.030;115.880;2022-10-04T15:17:10;4.30;;;0.60;;
72369;SDS011;60343;-32.030;115.880;2022-10-04T15:20:01;4.03;;;0.57;;
72369;SDS011;60343;-32.030;115.880;2022-10-04T15:28:10;4.10;;;0.55;;
72369;SDS011;60343;-32.030;115.880;2022-10-04T15:30:57;5.13;;;0.85;;
72369;SDS011;60343;-32.030;115.880;2022-10-04T15:33:42;5.30;;;0.60;;
72369;SDS011;60343;-32.030;115.880;2022-10-04T15:39:28;7.65;;;0.75;;
72369;SDS011;60343;-32.030;115.880;2022-10-04T15:42:13;5.00;;;0.75;;
72369;SDS011;60343;-32.030;115.880;2022-10-04T15:44:55;4.65;;;0.70;;
72369;SDS011;60343;-32.030;115.880;2022-10-04T15:47:51;7.28;;;0.77;;
72369;SDS011;60343;-32.030;115.880;2022-10-04T15:50:36;3.55;;;0.65;;
72369;SDS011;60343;-32.030;115.880;2022-10-04T15:53:24;3.92;;;0.73;;
72369;SDS011;60343;-32.030;115.880;2022-10-04T15:56:17;4.55;;;0.70;;
72369;SDS011;60343;-32.030;115.880;2022-10-04T15:59:06;7.90;;;0.90;;
72369;SDS011;60343;-32.030;115.880;2022-10-04T16:02:04;6.05;;;0.70;;
72369;SDS011;60343;-32.030;115.880;2022-10-04T16:05:04;6.32;;;0.90;;
72369;SDS011;60343;-32.030;115.880;2022-10-04T16:10:57;5.95;;;0.70;;
72369;SDS011;60343;-32.030;115.880;2022-10-04T16:13:52;9.45;;;0.80;;
72369;SDS011;60343;-32.030;115.880;2022-10-04T16:19:46;3.58;;;0.68;;
72369;SDS011;60343;-32.030;115.880;2022-10-04T16:24:59;5.68;;;0.60;;
72369;SDS011;60343;-32.030;115.880;2022-10-04T16:30:34;5.22;;;0.60;;
72369;SDS011;60343;-32.030;115.880;2022-10-04T16:33:23;3.30;;;0.40;;
72369;SDS011;60343;-32.030;115.880;2022-10-04T16:36:07;5.15;;;0.57;;
72369;SDS011;60343;-32.030;115.880;2022-10-04T16:38:43;5.85;;;0.60;;
72369;SDS011;60343;-32.030;115.880;2022-10-04T16:41:27;5.65;;;0.57;;
72369;SDS011;60343;-32.030;115.880;2022-10-04T16:44:00;5.90;;;0.70;;
72369;SDS011;60343;-32.030;115.880;2022-10-04T16:46:34;5.50;;;0.95;;
72369;SDS011;60343;-32.030;115.880;2022-10-04T16:49:14;6.63;;;0.70;;
72369;SDS011;60343;-32.030;115.880;2022-10-04T16:51:52;10.70;;;1.30;;
72369;SDS011;60343;-32.030;115.880;2022-10-04T16:57:31;8.85;;;0.80;;
72369;SDS011;60343;-32.030;115.880;2022-10-04T16:59:59;5.90;;;0.90;;
72369;SDS011;60343;-32.030;115.880;2022-10-04T17:03:13;6.28;;;0.73;;
72369;SDS011;60343;-32.030;115.880;2022-10-04T17:06:00;5.65;;;0.82;;
72369;SDS011;60343;-32.030;115.880;2022-10-04T17:08:53;6.38;;;0.80;;
72369;SDS011;60343;-32.030;115.880;2022-10-04T17:14:41;7.43;;;0.85;;
72369;SDS011;60343;-32.030;115.880;2022-10-04T17:17:27;7.28;;;0.80;;
72369;SDS011;60343;-32.030;115.880;2022-10-04T17:20:10;6.88;;;1.02;;
72369;SDS011;60343;-32.030;115.880;2022-10-04T17:22:51;6.72;;;1.00;;
72369;SDS011;60343;-32.030;115.880;2022-10-04T17:25:36;10.43;;;1.10;;
72369;SDS011;60343;-32.030;115.880;2022-10-04T17:28:16;7.22;;;1.38;;
72369;SDS011;60343;-32.030;115.880;2022-10-04T17:30:57;7.28;;;1.00;;
72369;SDS011;60343;-32.030;115.880;2022-10-04T17:33:41;7.35;;;1.02;;
72369;SDS011;60343;-32.030;115.880;2022-10-04T17:36:36;9.27;;;1.08;;
72369;SDS011;60343;-32.030;115.880;2022-10-04T17:39:13;6.45;;;1.00;;
72369;SDS011;60343;-32.030;115.880;2022-10-04T17:42:01;5.85;;;0.98;;
72369;SDS011;60343;-32.030;115.880;2022-10-04T17:44:51;5.93;;;0.90;;
72369;SDS011;60343;-32.030;115.880;2022-10-04T17:47:35;8.02;;;1.13;;
72369;SDS011;60343;-32.030;115.880;2022-10-04T17:50:11;7.18;;;1.10;;
72369;SDS011;60343;-32.030;115.880;2022-10-04T17:52:45;8.05;;;1.17;;
72369;SDS011;60343;-32.030;115.880;2022-10-04T17:55:19;5.60;;;0.85;;
72369;SDS011;60343;-32.030;115.880;2022-10-04T17:57:53;6.35;;;1.00;;
72369;SDS011;60343;-32.030;115.880;2022-10-04T18:00:27;6.63;;;0.80;;
72369;SDS011;60343;-32.030;115.880;2022-10-04T18:03:24;4.30;;;0.85;;
72369;SDS011;60343;-32.030;115.880;2022-10-04T18:06:00;4.38;;;0.70;;
72369;SDS011;60343;-32.030;115.880;2022-10-04T18:08:40;5.65;;;0.70;;
72369;SDS011;60343;-32.030;115.880;2022-10-04T18:11:16;5.18;;;0.73;;
72369;SDS011;60343;-32.030;115.880;2022-10-04T18:13:50;6.72;;;1.02;;
72369;SDS011;60343;-32.030;115.880;2022-10-04T18:16:25;5.75;;;1.10;;
72369;SDS011;60343;-32.030;115.880;2022-10-04T18:19:26;7.90;;;1.02;;
72369;SDS011;60343;-32.030;115.880;2022-10-04T18:22:08;5.07;;;0.85;;
72369;SDS011;60343;-32.030;115.880;2022-10-04T18:24:38;4.97;;;1.00;;
72369;SDS011;60343;-32.030;115.880;2022-10-04T18:27:14;6.65;;;1.58;;
72369;SDS011;60343;-32.030;115.880;2022-10-04T18:32:30;3.78;;;0.75;;
72369;SDS011;60343;-32.030;115.880;2022-10-04T18:35:17;6.00;;;1.30;;
72369;SDS011;60343;-32.030;115.880;2022-10-04T18:37:53;6.03;;;0.90;;
72369;SDS011;60343;-32.030;115.880;2022-10-04T18:40:23;8.32;;;0.90;;